createdAt,value
2023-04-05T00:00:14.736Z,1008.17
2023-04-05T00:01:14.664Z,1008.12
2023-04-05T00:02:14.652Z,1008.14
2023-04-05T00:03:14.871Z,1008.19
2023-04-05T00:04:14.756Z,1008.14
2023-04-05T00:05:14.684Z,1008.19
2023-04-05T00:06:14.601Z,1008.19
2023-04-05T00:07:14.608Z,1008.18
2023-04-05T00:08:14.581Z,1008.10
2023-04-05T00:09:14.599Z,1008.13
2023-04-05T00:10:14.599Z,1008.09
2023-04-05T00:11:14.600Z,1008.09
2023-04-05T00:12:14.570Z,1008.08
2023-04-05T00:13:14.568Z,1008.08
2023-04-05T00:14:14.554Z,1008.07
2023-04-05T00:15:14.523Z,1008.05
2023-04-05T00:16:14.592Z,1008.05
2023-04-05T00:17:14.521Z,1008.07
2023-04-05T00:18:14.476Z,1008.04
2023-04-05T00:19:14.505Z,1007.99
2023-04-05T00:20:14.455Z,1007.99
2023-04-05T00:21:14.483Z,1007.98
2023-04-05T00:22:14.460Z,1008.01
2023-04-05T00:23:14.437Z,1008.00
2023-04-05T00:24:14.444Z,1007.97
2023-04-05T00:25:14.403Z,1007.94
2023-04-05T00:26:14.396Z,1007.91
2023-04-05T00:27:14.384Z,1007.91
2023-04-05T00:28:14.403Z,1007.90
2023-04-05T00:29:14.395Z,1007.87
2023-04-05T00:30:14.343Z,1007.89
2023-04-05T00:31:14.364Z,1007.88
2023-04-05T00:32:14.373Z,1007.86
2023-04-05T00:33:14.324Z,1007.87
2023-04-05T00:34:14.341Z,1007.89
2023-04-05T00:35:14.317Z,1007.82
2023-04-05T00:36:14.337Z,1007.85
2023-04-05T00:37:14.296Z,1007.86
2023-04-05T00:38:14.269Z,1007.86
2023-04-05T00:39:14.261Z,1007.83
2023-04-05T00:40:14.292Z,1007.86
2023-04-05T00:41:14.250Z,1007.85
2023-04-05T00:42:14.236Z,1007.81
2023-04-05T00:43:14.211Z,1007.88
2023-04-05T00:44:14.213Z,1007.81
2023-04-05T00:45:14.213Z,1007.86
2023-04-05T00:46:14.275Z,1007.89
2023-04-05T00:47:14.220Z,1007.89
2023-04-05T00:48:14.152Z,1007.84
2023-04-05T00:49:14.149Z,1007.86
2023-04-05T00:50:14.160Z,1007.87
2023-04-05T00:51:14.131Z,1007.84
2023-04-05T00:52:14.155Z,1007.79
2023-04-05T00:53:14.160Z,1007.78
2023-04-05T00:54:14.136Z,1007.84
2023-04-05T00:55:14.091Z,1007.84
2023-04-05T00:56:14.107Z,1007.86
2023-04-05T00:57:14.078Z,1007.83
2023-04-05T00:58:14.061Z,1007.89
2023-04-05T00:59:14.181Z,1007.88
2023-04-05T01:00:14.045Z,1007.90
2023-04-05T01:01:14.147Z,1007.90
2023-04-05T01:02:14.019Z,1007.92
2023-04-05T01:03:14.003Z,1007.93
2023-04-05T01:04:14.063Z,1007.91
2023-04-05T01:05:14.022Z,1007.89
2023-04-05T01:06:15.473Z,1007.87
2023-04-05T01:07:13.953Z,1007.88
2023-04-05T01:08:13.945Z,1007.87
2023-04-05T01:09:13.946Z,1007.87
2023-04-05T01:10:13.927Z,1007.88
2023-04-05T01:11:13.932Z,1007.85
2023-04-05T01:12:13.918Z,1007.86
2023-04-05T01:13:13.896Z,1007.90
2023-04-05T01:14:13.898Z,1007.81
2023-04-05T01:15:13.888Z,1007.86
2023-04-05T01:16:13.873Z,1007.84
2023-04-05T01:17:13.893Z,1007.79
2023-04-05T01:18:13.846Z,1007.81
2023-04-05T01:19:13.832Z,1007.79
2023-04-05T01:20:13.836Z,1007.80
2023-04-05T01:21:13.809Z,1007.79
2023-04-05T01:22:13.808Z,1007.74
2023-04-05T01:23:13.846Z,1007.77
2023-04-05T01:24:13.764Z,1007.76
2023-04-05T01:25:13.807Z,1007.76
2023-04-05T01:26:13.745Z,1007.72
2023-04-05T01:27:13.740Z,1007.71
2023-04-05T01:28:13.739Z,1007.75
2023-04-05T01:29:13.745Z,1007.73
2023-04-05T01:30:13.723Z,1007.71
2023-04-05T01:31:13.714Z,1007.70
2023-04-05T01:32:13.693Z,1007.73
2023-04-05T01:33:13.677Z,1007.71
2023-04-05T01:34:13.662Z,1007.70
2023-04-05T01:35:13.698Z,1007.69
2023-04-05T01:36:13.646Z,1007.67
2023-04-05T01:37:13.634Z,1007.71
2023-04-05T01:38:13.628Z,1007.70
2023-04-05T01:39:13.631Z,1007.68
2023-04-05T01:40:13.600Z,1007.69
2023-04-05T01:41:13.610Z,1007.67
2023-04-05T01:42:13.595Z,1007.69
2023-04-05T01:43:13.566Z,1007.64
2023-04-05T01:44:13.557Z,1007.63
2023-04-05T01:45:13.542Z,1007.65
2023-04-05T01:46:13.603Z,1007.62
2023-04-05T01:47:13.548Z,1007.64
2023-04-05T01:48:13.503Z,1007.62
2023-04-05T01:49:13.500Z,1007.59
2023-04-05T01:50:13.519Z,1007.60
2023-04-05T01:51:13.479Z,1007.58
2023-04-05T01:52:13.466Z,1007.58
2023-04-05T01:53:13.476Z,1007.56
2023-04-05T01:54:13.460Z,1007.57
2023-04-05T01:55:13.433Z,1007.51
2023-04-05T01:56:13.419Z,1007.53
2023-04-05T01:57:13.470Z,1007.47
2023-04-05T01:58:13.440Z,1007.44
2023-04-05T01:59:13.484Z,1007.44
2023-04-05T02:00:13.392Z,1007.48
2023-04-05T02:01:13.435Z,1007.45
2023-04-05T02:02:13.379Z,1007.48
2023-04-05T02:03:13.538Z,1007.47
2023-04-05T02:04:13.353Z,1007.47
2023-04-05T02:05:13.327Z,1007.46
2023-04-05T02:06:13.316Z,1007.43
2023-04-05T02:07:13.314Z,1007.43
2023-04-05T02:08:13.300Z,1007.42
2023-04-05T02:09:13.330Z,1007.39
2023-04-05T02:10:13.276Z,1007.40
2023-04-05T02:11:13.262Z,1007.39
2023-04-05T02:12:13.251Z,1007.43
2023-04-05T02:13:13.296Z,1007.37
2023-04-05T02:14:13.245Z,1007.34
2023-04-05T02:15:13.294Z,1007.35
2023-04-05T02:16:13.265Z,1007.35
2023-04-05T02:17:13.201Z,1007.34
2023-04-05T02:18:13.196Z,1007.35
2023-04-05T02:19:13.201Z,1007.31
2023-04-05T02:20:13.170Z,1007.37
2023-04-05T02:21:13.197Z,1007.38
2023-04-05T02:22:13.149Z,1007.38
2023-04-05T02:23:13.160Z,1007.41
2023-04-05T02:24:13.267Z,1007.38
2023-04-05T02:25:13.115Z,1007.38
2023-04-05T02:26:13.098Z,1007.33
2023-04-05T02:27:13.177Z,1007.31
2023-04-05T02:28:13.089Z,1007.29
2023-04-05T02:29:13.091Z,1007.29
2023-04-05T02:30:13.060Z,1007.34
2023-04-05T02:31:13.068Z,1007.34
2023-04-05T02:32:13.056Z,1007.37
2023-04-05T02:33:13.081Z,1007.34
2023-04-05T02:34:13.031Z,1007.38
2023-04-05T02:35:13.010Z,1007.37
2023-04-05T02:36:13.018Z,1007.42
2023-04-05T02:37:12.983Z,1007.41
2023-04-05T02:38:12.989Z,1007.40
2023-04-05T02:39:13.006Z,1007.39
2023-04-05T02:40:12.946Z,1007.42
2023-04-05T02:41:12.943Z,1007.45
2023-04-05T02:42:12.952Z,1007.38
2023-04-05T02:43:12.937Z,1007.39
2023-04-05T02:44:12.914Z,1007.31
2023-04-05T02:45:12.946Z,1007.34
2023-04-05T02:46:12.905Z,1007.25
2023-04-05T02:47:12.874Z,1007.31
2023-04-05T02:48:12.879Z,1007.24
2023-04-05T02:49:12.875Z,1007.35
2023-04-05T02:50:12.862Z,1007.26
2023-04-05T02:51:12.884Z,1007.29
2023-04-05T02:52:12.819Z,1007.23
2023-04-05T02:53:12.812Z,1007.27
2023-04-05T02:54:12.828Z,1007.27
2023-04-05T02:55:12.861Z,1007.26
2023-04-05T02:56:12.792Z,1007.25
2023-04-05T02:57:12.790Z,1007.26
2023-04-05T02:58:12.768Z,1007.25
2023-04-05T02:59:12.819Z,1007.25
2023-04-05T03:00:12.751Z,1007.25
2023-04-05T03:01:12.839Z,1007.21
2023-04-05T03:02:12.706Z,1007.19
2023-04-05T03:03:12.832Z,1007.22
2023-04-05T03:04:12.689Z,1007.19
2023-04-05T03:05:12.686Z,1007.17
2023-04-05T03:06:12.682Z,1007.24
2023-04-05T03:07:12.681Z,1007.24
2023-04-05T03:08:12.715Z,1007.21
2023-04-05T03:09:12.641Z,1007.24
2023-04-05T03:10:12.660Z,1007.25
2023-04-05T03:11:12.630Z,1007.25
2023-04-05T03:12:12.610Z,1007.32
2023-04-05T03:13:12.608Z,1007.28
2023-04-05T03:14:12.660Z,1007.26
2023-04-05T03:15:12.567Z,1007.23
2023-04-05T03:16:12.634Z,1007.24
2023-04-05T03:17:12.599Z,1007.27
2023-04-05T03:18:12.572Z,1007.27
2023-04-05T03:19:12.541Z,1007.25
2023-04-05T03:20:12.523Z,1007.26
2023-04-05T03:21:12.554Z,1007.28
2023-04-05T03:22:12.524Z,1007.27
2023-04-05T03:23:12.503Z,1007.33
2023-04-05T03:24:12.470Z,1007.33
2023-04-05T03:25:12.478Z,1007.34
2023-04-05T03:26:12.451Z,1007.34
2023-04-05T03:27:12.464Z,1007.33
2023-04-05T03:28:12.517Z,1007.38
2023-04-05T03:29:12.418Z,1007.33
2023-04-05T03:30:12.408Z,1007.32
2023-04-05T03:31:12.437Z,1007.43
2023-04-05T03:32:12.421Z,1007.40
2023-04-05T03:33:12.411Z,1007.45
2023-04-05T03:34:12.370Z,1007.44
2023-04-05T03:35:12.354Z,1007.50
2023-04-05T03:36:12.367Z,1007.45
2023-04-05T03:37:12.324Z,1007.40
2023-04-05T03:38:12.462Z,1007.44
2023-04-05T03:39:12.303Z,1007.43
2023-04-05T03:40:12.299Z,1007.41
2023-04-05T03:41:12.284Z,1007.43
2023-04-05T03:42:12.286Z,1007.45
2023-04-05T03:43:12.284Z,1007.43
2023-04-05T03:44:12.299Z,1007.45
2023-04-05T03:45:12.256Z,1007.43
2023-04-05T03:46:12.332Z,1007.41
2023-04-05T03:47:12.226Z,1007.44
2023-04-05T03:48:12.222Z,1007.47
2023-04-05T03:49:12.234Z,1007.45
2023-04-05T03:50:12.263Z,1007.49
2023-04-05T03:51:12.202Z,1007.44
2023-04-05T03:52:12.210Z,1007.41
2023-04-05T03:53:12.188Z,1007.46
2023-04-05T03:54:12.187Z,1007.41
2023-04-05T03:55:12.178Z,1007.37
2023-04-05T03:56:12.180Z,1007.34
2023-04-05T03:57:12.121Z,1007.35
2023-04-05T03:58:12.113Z,1007.34
2023-04-05T03:59:12.113Z,1007.29
2023-04-05T04:00:12.096Z,1007.32
2023-04-05T04:01:12.066Z,1007.29
2023-04-05T04:02:12.127Z,1007.28
2023-04-05T04:03:12.095Z,1007.26
2023-04-05T04:04:12.041Z,1007.27
2023-04-05T04:05:12.061Z,1007.27
2023-04-05T04:06:12.112Z,1007.22
2023-04-05T04:07:12.023Z,1007.19
2023-04-05T04:08:12.065Z,1007.18
2023-04-05T04:09:11.987Z,1007.18
2023-04-05T04:10:12.106Z,1007.20
2023-04-05T04:11:11.969Z,1007.21
2023-04-05T04:12:11.952Z,1007.22
2023-04-05T04:13:11.942Z,1007.25
2023-04-05T04:14:11.996Z,1007.22
2023-04-05T04:15:11.937Z,1007.22
2023-04-05T04:16:11.948Z,1007.18
2023-04-05T04:17:11.907Z,1007.21
2023-04-05T04:18:11.892Z,1007.22
2023-04-05T04:19:11.900Z,1007.18
2023-04-05T04:20:11.895Z,1007.20
2023-04-05T04:21:11.873Z,1007.18
2023-04-05T04:22:11.866Z,1007.22
2023-04-05T04:23:11.848Z,1007.22
2023-04-05T04:24:11.836Z,1007.19
2023-04-05T04:25:11.834Z,1007.17
2023-04-05T04:26:11.825Z,1007.18
2023-04-05T04:27:11.805Z,1007.19
2023-04-05T04:28:11.780Z,1007.19
2023-04-05T04:29:11.792Z,1007.19
2023-04-05T04:30:11.774Z,1007.21
2023-04-05T04:31:11.747Z,1007.18
2023-04-05T04:32:11.780Z,1007.23
2023-04-05T04:33:11.755Z,1007.19
2023-04-05T04:34:11.724Z,1007.15
2023-04-05T04:35:11.788Z,1007.18
2023-04-05T04:36:11.766Z,1007.13
2023-04-05T04:37:11.698Z,1007.13
2023-04-05T04:38:11.742Z,1007.19
2023-04-05T04:39:11.686Z,1007.16
2023-04-05T04:40:11.657Z,1007.13
2023-04-05T04:41:11.659Z,1007.17
2023-04-05T04:42:11.636Z,1007.14
2023-04-05T04:43:11.636Z,1007.12
2023-04-05T04:44:11.681Z,1007.18
2023-04-05T04:45:11.605Z,1007.19
2023-04-05T04:46:11.654Z,1007.20
2023-04-05T04:47:13.082Z,1007.21
2023-04-05T04:48:11.590Z,1007.26
2023-04-05T04:49:11.569Z,1007.17
2023-04-05T04:50:11.608Z,1007.24
2023-04-05T04:51:11.532Z,1007.20
2023-04-05T04:52:11.543Z,1007.21
2023-04-05T04:53:11.547Z,1007.23
2023-04-05T04:54:11.516Z,1007.20
2023-04-05T04:55:11.499Z,1007.23
2023-04-05T04:56:11.521Z,1007.23
2023-04-05T04:57:11.488Z,1007.26
2023-04-05T04:58:11.473Z,1007.28
2023-04-05T04:59:11.474Z,1007.27
2023-04-05T05:00:11.449Z,1007.30
2023-04-05T05:01:11.448Z,1007.28
2023-04-05T05:02:11.489Z,1007.28
2023-04-05T05:03:11.557Z,1007.28
2023-04-05T05:04:11.435Z,1007.30
2023-04-05T05:05:11.455Z,1007.26
2023-04-05T05:06:11.410Z,1007.27
2023-04-05T05:07:11.369Z,1007.31
2023-04-05T05:08:11.450Z,1007.26
2023-04-05T05:09:11.411Z,1007.27
2023-04-05T05:10:11.349Z,1007.28
2023-04-05T05:11:11.331Z,1007.29
2023-04-05T05:12:11.323Z,1007.29
2023-04-05T05:13:11.324Z,1007.29
2023-04-05T05:14:11.317Z,1007.32
2023-04-05T05:15:11.327Z,1007.31
2023-04-05T05:16:11.317Z,1007.33
2023-04-05T05:17:11.273Z,1007.34
2023-04-05T05:18:11.320Z,1007.30
2023-04-05T05:19:11.239Z,1007.30
2023-04-05T05:20:11.538Z,1007.31
2023-04-05T05:21:11.249Z,1007.29
2023-04-05T05:22:11.245Z,1007.31
2023-04-05T05:23:11.207Z,1007.29
2023-04-05T05:24:11.206Z,1007.29
2023-04-05T05:25:11.192Z,1007.27
2023-04-05T05:26:11.206Z,1007.25
2023-04-05T05:27:11.217Z,1007.22
2023-04-05T05:28:11.154Z,1007.26
2023-04-05T05:29:11.144Z,1007.20
2023-04-05T05:30:11.139Z,1007.23
2023-04-05T05:31:11.242Z,1007.26
2023-04-05T05:32:11.104Z,1007.29
2023-04-05T05:33:11.189Z,1007.27
2023-04-05T05:34:11.098Z,1007.27
2023-04-05T05:35:11.084Z,1007.28
2023-04-05T05:36:11.066Z,1007.24
2023-04-05T05:37:11.124Z,1007.20
2023-04-05T05:38:13.392Z,1007.18
2023-04-05T05:39:11.171Z,1007.19
2023-04-05T05:40:11.028Z,1007.18
2023-04-05T05:41:11.035Z,1007.21
2023-04-05T05:42:11.007Z,1007.17
2023-04-05T05:43:10.999Z,1007.19
2023-04-05T05:44:10.983Z,1007.22
2023-04-05T05:45:11.030Z,1007.17
2023-04-05T05:46:11.028Z,1007.16
2023-04-05T05:47:10.980Z,1007.17
2023-04-05T05:48:11.012Z,1007.21
2023-04-05T05:49:10.918Z,1007.19
2023-04-05T05:50:10.921Z,1007.16
2023-04-05T05:51:10.952Z,1007.21
2023-04-05T05:52:10.900Z,1007.21
2023-04-05T05:53:10.891Z,1007.15
2023-04-05T05:54:10.881Z,1007.14
2023-04-05T05:55:10.872Z,1007.16
2023-04-05T05:56:10.951Z,1007.14
2023-04-05T05:57:10.904Z,1007.15
2023-04-05T05:58:10.843Z,1007.12
2023-04-05T05:59:10.926Z,1007.18
2023-04-05T06:00:10.896Z,1007.19
2023-04-05T06:01:10.805Z,1007.21
2023-04-05T06:02:10.778Z,1007.21
2023-04-05T06:03:10.919Z,1007.24
2023-04-05T06:04:10.821Z,1007.25
2023-04-05T06:05:10.748Z,1007.25
2023-04-05T06:06:10.761Z,1007.21
2023-04-05T06:07:10.734Z,1007.19
2023-04-05T06:08:10.720Z,1007.20
2023-04-05T06:09:10.734Z,1007.21
2023-04-05T06:10:10.704Z,1007.21
2023-04-05T06:11:10.692Z,1007.22
2023-04-05T06:12:10.695Z,1007.14
2023-04-05T06:13:10.731Z,1007.21
2023-04-05T06:14:10.657Z,1007.18
2023-04-05T06:15:10.695Z,1007.17
2023-04-05T06:16:10.697Z,1007.14
2023-04-05T06:17:10.658Z,1007.16
2023-04-05T06:18:10.689Z,1007.15
2023-04-05T06:19:10.607Z,1007.14
2023-04-05T06:20:10.598Z,1007.14
2023-04-05T06:21:10.957Z,1007.17
2023-04-05T06:22:10.583Z,1007.18
2023-04-05T06:23:10.559Z,1007.21
2023-04-05T06:24:10.546Z,1007.18
2023-04-05T06:25:10.549Z,1007.23
2023-04-05T06:26:10.528Z,1007.19
2023-04-05T06:27:10.543Z,1007.19
2023-04-05T06:28:10.527Z,1007.19
2023-04-05T06:29:10.528Z,1007.20
2023-04-05T06:30:10.512Z,1007.21
2023-04-05T06:31:11.624Z,1007.19
2023-04-05T06:32:10.553Z,1007.20
2023-04-05T06:33:10.493Z,1007.21
2023-04-05T06:34:10.467Z,1007.25
2023-04-05T06:35:10.444Z,1007.22
2023-04-05T06:36:10.489Z,1007.24
2023-04-05T06:37:10.399Z,1007.22
2023-04-05T06:38:10.390Z,1007.23
2023-04-05T06:39:10.402Z,1007.24
2023-04-05T06:40:10.415Z,1007.28
2023-04-05T06:41:10.372Z,1007.25
2023-04-05T06:42:10.389Z,1007.27
2023-04-05T06:43:10.364Z,1007.26
2023-04-05T06:44:10.361Z,1007.26
2023-04-05T06:45:10.344Z,1007.22
2023-04-05T06:46:10.474Z,1007.23
2023-04-05T06:47:10.311Z,1007.23
2023-04-05T06:48:10.371Z,1007.23
2023-04-05T06:49:10.269Z,1007.21
2023-04-05T06:50:10.275Z,1007.24
2023-04-05T06:51:10.286Z,1007.23
2023-04-05T06:52:10.271Z,1007.16
2023-04-05T06:53:10.229Z,1007.18
2023-04-05T06:54:10.239Z,1007.18
2023-04-05T06:55:10.220Z,1007.15
2023-04-05T06:56:10.201Z,1007.27
2023-04-05T06:57:10.220Z,1007.23
2023-04-05T06:58:10.180Z,1007.21
2023-04-05T06:59:10.242Z,1007.20
2023-04-05T07:00:10.161Z,1007.26
2023-04-05T07:01:10.235Z,1007.20
2023-04-05T07:02:10.155Z,1007.19
2023-04-05T07:03:10.228Z,1007.19
2023-04-05T07:04:10.141Z,1007.17
2023-04-05T07:05:10.102Z,1007.19
2023-04-05T07:06:10.090Z,1007.25
2023-04-05T07:07:10.096Z,1007.20
2023-04-05T07:08:10.094Z,1007.20
2023-04-05T07:09:10.125Z,1007.16
2023-04-05T07:10:10.051Z,1007.13
2023-04-05T07:11:10.153Z,1007.15
2023-04-05T07:12:10.301Z,1007.16
2023-04-05T07:13:10.024Z,1007.13
2023-04-05T07:14:10.030Z,1007.07
2023-04-05T07:15:10.026Z,1007.11
2023-04-05T07:16:10.057Z,1007.08
2023-04-05T07:17:10.024Z,1007.07
2023-04-05T07:18:09.962Z,1007.03
2023-04-05T07:19:09.976Z,1007.04
2023-04-05T07:20:09.950Z,1007.05
2023-04-05T07:21:09.978Z,1007.07
2023-04-05T07:22:09.922Z,1007.02
2023-04-05T07:23:09.903Z,1007.07
2023-04-05T07:24:09.896Z,1007.05
2023-04-05T07:25:09.884Z,1007.05
2023-04-05T07:26:09.881Z,1007.05
2023-04-05T07:27:09.933Z,1007.05
2023-04-05T07:28:09.853Z,1007.01
2023-04-05T07:29:09.837Z,1007.03
2023-04-05T07:30:09.828Z,1007.08
2023-04-05T07:31:09.830Z,1007.05
2023-04-05T07:32:09.823Z,1007.05
2023-04-05T07:33:09.881Z,1007.06
2023-04-05T07:34:09.788Z,1007.06
2023-04-05T07:35:09.785Z,1007.06
2023-04-05T07:36:09.789Z,1007.10
2023-04-05T07:37:09.764Z,1007.11
2023-04-05T07:38:09.741Z,1007.05
2023-04-05T07:39:09.754Z,1007.04
2023-04-05T07:40:09.748Z,1007.04
2023-04-05T07:41:09.711Z,1007.04
2023-04-05T07:42:09.742Z,1007.02
2023-04-05T07:43:09.684Z,1007.02
2023-04-05T07:44:09.713Z,1006.99
2023-04-05T07:45:09.699Z,1006.95
2023-04-05T07:46:09.706Z,1006.99
2023-04-05T07:47:09.639Z,1007.04
2023-04-05T07:48:09.738Z,1007.02
2023-04-05T07:49:09.668Z,1006.94
2023-04-05T07:50:09.634Z,1006.97
2023-04-05T07:51:09.683Z,1006.98
2023-04-05T07:52:09.598Z,1006.98
2023-04-05T07:53:09.584Z,1006.97
2023-04-05T07:54:09.566Z,1007.00
2023-04-05T07:55:09.589Z,1006.92
2023-04-05T07:56:09.544Z,1006.93
2023-04-05T07:57:09.600Z,1007.03
2023-04-05T07:58:09.543Z,1007.00
2023-04-05T07:59:09.568Z,1006.99
2023-04-05T08:00:09.507Z,1006.99
2023-04-05T08:01:09.520Z,1006.99
2023-04-05T08:02:14.461Z,1007.02
2023-04-05T08:03:10.600Z,1006.95
2023-04-05T08:04:09.534Z,1006.98
2023-04-05T08:05:09.567Z,1006.94
2023-04-05T08:06:09.449Z,1006.98
2023-04-05T08:07:09.451Z,1006.92
2023-04-05T08:08:09.412Z,1006.90
2023-04-05T08:09:09.420Z,1006.94
2023-04-05T08:10:09.391Z,1006.94
2023-04-05T08:11:09.389Z,1006.96
2023-04-05T08:12:09.391Z,1006.92
2023-04-05T08:13:09.381Z,1006.94
2023-04-05T08:14:09.368Z,1006.95
2023-04-05T08:15:09.351Z,1006.88
2023-04-05T08:16:09.348Z,1006.83
2023-04-05T08:17:09.330Z,1006.84
2023-04-05T08:18:09.355Z,1006.90
2023-04-05T08:19:09.368Z,1006.86
2023-04-05T08:20:09.354Z,1006.86
2023-04-05T08:21:09.313Z,1006.84
2023-04-05T08:22:09.301Z,1006.88
2023-04-05T08:23:09.278Z,1006.87
2023-04-05T08:24:09.246Z,1006.82
2023-04-05T08:25:09.224Z,1006.84
2023-04-05T08:26:09.265Z,1006.82
2023-04-05T08:27:09.208Z,1006.84
2023-04-05T08:28:09.207Z,1006.83
2023-04-05T08:29:09.207Z,1006.82
2023-04-05T08:30:09.195Z,1006.78
2023-04-05T08:31:09.711Z,1006.86
2023-04-05T08:32:09.279Z,1006.79
2023-04-05T08:33:09.180Z,1006.80
2023-04-05T08:34:09.125Z,1006.86
2023-04-05T08:35:09.135Z,1006.82
2023-04-05T08:36:09.122Z,1006.81
2023-04-05T08:37:09.112Z,1006.87
2023-04-05T08:38:09.109Z,1006.86
2023-04-05T08:39:09.071Z,1006.85
2023-04-05T08:40:09.077Z,1006.81
2023-04-05T08:41:09.063Z,1006.77
2023-04-05T08:42:09.037Z,1006.79
2023-04-05T08:43:09.032Z,1006.79
2023-04-05T08:44:09.050Z,1006.82
2023-04-05T08:45:09.045Z,1006.80
2023-04-05T08:46:09.023Z,1006.77
2023-04-05T08:47:08.987Z,1006.84
2023-04-05T08:48:08.985Z,1006.82
2023-04-05T08:49:09.028Z,1006.85
2023-04-05T08:50:09.101Z,1006.86
2023-04-05T08:51:08.945Z,1006.85
2023-04-05T08:52:08.936Z,1006.83
2023-04-05T08:53:08.942Z,1006.83
2023-04-05T08:54:08.916Z,1006.77
2023-04-05T08:55:08.942Z,1006.80
2023-04-05T08:56:09.008Z,1006.81
2023-04-05T08:57:08.882Z,1006.77
2023-04-05T08:58:08.868Z,1006.76
2023-04-05T08:59:08.892Z,1006.77
2023-04-05T09:00:08.869Z,1006.73
2023-04-05T09:01:08.855Z,1006.75
2023-04-05T09:02:08.927Z,1006.79
2023-04-05T09:03:08.934Z,1006.81
2023-04-05T09:04:08.811Z,1006.77
2023-04-05T09:05:08.800Z,1006.82
2023-04-05T09:06:08.787Z,1006.82
2023-04-05T09:07:08.790Z,1006.79
2023-04-05T09:08:08.796Z,1006.75
2023-04-05T09:09:08.786Z,1006.81
2023-04-05T09:10:08.767Z,1006.82
2023-04-05T09:11:08.745Z,1006.76
2023-04-05T09:12:08.730Z,1006.75
2023-04-05T09:13:09.251Z,1006.74
2023-04-05T09:14:08.735Z,1006.80
2023-04-05T09:15:08.693Z,1006.78
2023-04-05T09:16:08.697Z,1006.75
2023-04-05T09:17:08.809Z,1006.72
2023-04-05T09:18:19.017Z,1006.75
2023-04-05T09:19:09.641Z,1006.79
2023-04-05T09:20:08.677Z,1006.72
2023-04-05T09:21:08.641Z,1006.77
2023-04-05T09:22:08.612Z,1006.77
2023-04-05T09:23:08.623Z,1006.76
2023-04-05T09:24:08.599Z,1006.72
2023-04-05T09:25:08.591Z,1006.76
2023-04-05T09:26:08.598Z,1006.78
2023-04-05T09:27:08.581Z,1006.74
2023-04-05T09:28:08.549Z,1006.78
2023-04-05T09:29:08.564Z,1006.77
2023-04-05T09:30:08.514Z,1006.79
2023-04-05T09:31:08.567Z,1006.74
2023-04-05T09:32:08.525Z,1006.75
2023-04-05T09:33:08.612Z,1006.76
2023-04-05T09:34:08.483Z,1006.68
2023-04-05T09:35:08.478Z,1006.79
2023-04-05T09:36:08.496Z,1006.70
2023-04-05T09:37:08.442Z,1006.70
2023-04-05T09:38:08.451Z,1006.72
2023-04-05T09:39:08.470Z,1006.69
2023-04-05T09:40:08.419Z,1006.63
2023-04-05T09:41:08.439Z,1006.66
2023-04-05T09:42:08.398Z,1006.72
2023-04-05T09:43:08.383Z,1006.68
2023-04-05T09:44:08.391Z,1006.68
2023-04-05T09:45:08.365Z,1006.62
2023-04-05T09:46:08.416Z,1006.63
2023-04-05T09:47:08.356Z,1006.67
2023-04-05T09:48:08.458Z,1006.66
2023-04-05T09:49:08.321Z,1006.62
2023-04-05T09:50:08.320Z,1006.64
2023-04-05T09:52:08.306Z,1006.61
2023-04-05T09:53:08.270Z,1006.58
2023-04-05T09:54:08.277Z,1006.61
2023-04-05T09:55:08.247Z,1006.67
2023-04-05T09:56:08.275Z,1006.61
2023-04-05T09:57:08.246Z,1006.58
2023-04-05T09:58:08.223Z,1006.61
2023-04-05T09:59:08.239Z,1006.58
2023-04-05T10:00:08.216Z,1006.62
2023-04-05T10:01:16.890Z,1006.59
2023-04-05T10:02:09.249Z,1006.55
2023-04-05T10:03:08.276Z,1006.56
2023-04-05T10:04:08.287Z,1006.58
2023-04-05T10:05:08.136Z,1006.51
2023-04-05T10:06:08.151Z,1006.55
2023-04-05T10:07:08.161Z,1006.51
2023-04-05T10:08:08.133Z,1006.49
2023-04-05T10:09:08.098Z,1006.45
2023-04-05T10:10:08.085Z,1006.48
2023-04-05T10:11:08.117Z,1006.45
2023-04-05T10:12:08.053Z,1006.43
2023-04-05T10:13:08.068Z,1006.43
2023-04-05T10:14:08.077Z,1006.42
2023-04-05T10:15:08.035Z,1006.40
2023-04-05T10:16:08.038Z,1006.39
2023-04-05T10:17:08.027Z,1006.39
2023-04-05T10:18:08.032Z,1006.38
2023-04-05T10:19:09.028Z,1006.40
2023-04-05T10:20:08.029Z,1006.40
2023-04-05T10:21:07.978Z,1006.37
2023-04-05T10:22:07.974Z,1006.37
2023-04-05T10:23:08.028Z,1006.33
2023-04-05T10:24:07.929Z,1006.42
2023-04-05T10:25:07.938Z,1006.38
2023-04-05T10:26:07.945Z,1006.35
2023-04-05T10:27:07.903Z,1006.33
2023-04-05T10:28:07.903Z,1006.37
2023-04-05T10:29:07.939Z,1006.36
2023-04-05T10:30:07.854Z,1006.36
2023-04-05T10:31:07.843Z,1006.39
2023-04-05T10:32:08.056Z,1006.36
2023-04-05T10:33:07.917Z,1006.33
2023-04-05T10:34:07.972Z,1006.37
2023-04-05T10:35:07.851Z,1006.28
2023-04-05T10:36:07.884Z,1006.30
2023-04-05T10:37:07.789Z,1006.30
2023-04-05T10:38:07.762Z,1006.35
2023-04-05T10:39:07.804Z,1006.27
2023-04-05T10:40:07.793Z,1006.27
2023-04-05T10:41:07.780Z,1006.23
2023-04-05T10:42:07.773Z,1006.21
2023-04-05T10:43:07.717Z,1006.25
2023-04-05T10:44:18.888Z,1006.19
2023-04-05T10:45:08.725Z,1006.21
2023-04-05T10:46:07.814Z,1006.26
2023-04-05T10:47:07.680Z,1006.24
2023-04-05T10:48:07.755Z,1006.21
2023-04-05T10:49:07.738Z,1006.28
2023-04-05T10:50:07.755Z,1006.24
2023-04-05T10:51:07.634Z,1006.16
2023-04-05T10:52:07.659Z,1006.16
2023-04-05T10:53:07.652Z,1006.19
2023-04-05T10:54:07.620Z,1006.15
2023-04-05T10:55:07.713Z,1006.11
2023-04-05T10:56:07.581Z,1006.08
2023-04-05T10:57:09.395Z,1006.04
2023-04-05T10:58:07.765Z,1006.01
2023-04-05T10:59:07.578Z,1006.02
2023-04-05T11:00:07.623Z,1005.99
2023-04-05T11:01:07.641Z,1006.02
2023-04-05T11:02:07.524Z,1006.00
2023-04-05T11:03:07.541Z,1005.94
2023-04-05T11:04:07.533Z,1005.96
2023-04-05T11:05:07.539Z,1005.97
2023-04-05T11:06:07.479Z,1006.02
2023-04-05T11:07:07.489Z,1005.97
2023-04-05T11:08:07.477Z,1005.96
2023-04-05T11:09:07.469Z,1005.98
2023-04-05T11:10:07.446Z,1006.01
2023-04-05T11:11:07.462Z,1006.02
2023-04-05T11:12:07.457Z,1006.03
2023-04-05T11:13:07.414Z,1005.99
2023-04-05T11:14:07.403Z,1006.04
2023-04-05T11:15:07.390Z,1006.06
2023-04-05T11:16:07.374Z,1006.00
2023-04-05T11:17:07.444Z,1006.03
2023-04-05T11:18:07.415Z,1006.00
2023-04-05T11:19:07.344Z,1005.98
2023-04-05T11:20:07.322Z,1005.89
2023-04-05T11:21:07.322Z,1005.94
2023-04-05T11:22:07.298Z,1005.89
2023-04-05T11:23:07.319Z,1005.95
2023-04-05T11:24:07.340Z,1005.91
2023-04-05T11:25:07.295Z,1005.95
2023-04-05T11:26:07.285Z,1005.97
2023-04-05T11:27:07.242Z,1005.93
2023-04-05T11:28:07.235Z,1005.95
2023-04-05T11:29:07.274Z,1005.98
2023-04-05T11:30:07.220Z,1005.98
2023-04-05T11:31:07.335Z,1005.93
2023-04-05T11:32:07.205Z,1005.91
2023-04-05T11:33:07.285Z,1005.85
2023-04-05T11:34:07.180Z,1005.86
2023-04-05T11:35:07.180Z,1005.82
2023-04-05T11:36:07.215Z,1005.85
2023-04-05T11:37:07.131Z,1005.83
2023-04-05T11:38:07.122Z,1005.86
2023-04-05T11:39:07.138Z,1005.81
2023-04-05T11:40:07.093Z,1005.78
2023-04-05T11:41:07.081Z,1005.79
2023-04-05T11:42:07.094Z,1005.76
2023-04-05T11:43:07.090Z,1005.75
2023-04-05T11:44:07.046Z,1005.69
2023-04-05T11:45:07.040Z,1005.69
2023-04-05T11:46:07.025Z,1005.68
2023-04-05T11:47:07.025Z,1005.65
2023-04-05T11:48:07.105Z,1005.61
2023-04-05T11:49:07.012Z,1005.70
2023-04-05T11:50:06.984Z,1005.63
2023-04-05T11:51:07.006Z,1005.68
2023-04-05T11:52:06.957Z,1005.67
2023-04-05T11:53:06.954Z,1005.59
2023-04-05T11:54:06.980Z,1005.61
2023-04-05T11:55:06.924Z,1005.59
2023-04-05T11:56:06.952Z,1005.63
2023-04-05T11:57:06.896Z,1005.62
2023-04-05T11:58:06.891Z,1005.62
2023-04-05T11:59:06.936Z,1005.60
2023-04-05T12:00:06.881Z,1005.57
2023-04-05T12:01:06.883Z,1005.55
2023-04-05T12:02:06.886Z,1005.49
2023-04-05T12:03:06.908Z,1005.55
2023-04-05T12:04:06.842Z,1005.47
2023-04-05T12:05:06.885Z,1005.49
2023-04-05T12:06:06.823Z,1005.48